Time;durP1;ratioP1;P1;durP2;ratioP2;P2;SDS_P1;SDS_P2;PMS_P1;PMS_P2;Temp;Humidity;BMP_temperature;BMP_pressure;BME280_temperature;BME280_humidity;BME280_pressure;Samples;Min_cycle;Max_cycle;Signal;HPM_P1;HPM_P2
2022/04/30 00:02:19;;;;;;;;;;;11.20;93.50;;;;;;5049222;28;19933;-66
2022/04/30 00:04:47;;;;;;;;;;;11.20;93.30;;;;;;5032852;28;19932;-66
2022/04/30 00:07:16;;;;;;;;;;;11.20;92.70;;;;;;5030090;28;20390;-66
2022/04/30 00:09:43;;;;;;;;;;;11.20;92.70;;;;;;5036070;28;20268;-66
2022/04/30 00:12:10;;;;;;;;;;;11.20;92.80;;;;;;5038435;28;19933;-67
2022/04/30 00:14:38;;;;;;;;;;;11.20;91.90;;;;;;5039628;28;19936;-66
2022/04/30 00:17:06;;;;;;;;;;;11.20;91.40;;;;;;5036944;28;20339;-66
2022/04/30 00:19:33;;;;;;;;;;;11.10;90.90;;;;;;5033081;28;20022;-66
2022/04/30 00:22:00;;;;;;;;;;;11.00;90.60;;;;;;5034847;28;19943;-66
2022/04/30 00:24:27;;;;;;;;;;;11.00;90.20;;;;;;5038250;28;19931;-65
2022/04/30 00:26:59;;;;;;;;;;;11.10;89.60;;;;;;5034800;28;19948;-66
2022/04/30 00:29:27;;;;;;;;;;;11.10;88.20;;;;;;5033401;28;19982;-66
2022/04/30 00:31:54;;;;;;;;;;;11.00;88.30;;;;;;5036471;28;19935;-66
2022/04/30 00:34:21;;;;;;;;;;;11.10;87.40;;;;;;5034429;28;19940;-66
2022/04/30 00:36:48;;;;;;;;;;;11.00;86.90;;;;;;5031710;28;19932;-66
2022/04/30 00:39:15;;;;;;;;;;;11.00;86.20;;;;;;5035297;28;20601;-66
2022/04/30 00:41:46;;;;;;;;;;;11.00;85.70;;;;;;5037885;28;19958;-66
2022/04/30 00:44:18;;;;;;;;;;;11.10;85.70;;;;;;5030781;28;19936;-66
2022/04/30 00:46:45;;;;;;;;;;;11.00;85.20;;;;;;5047718;28;19933;-66
2022/04/30 00:49:13;;;;;;;;;;;11.10;85.60;;;;;;5031030;28;19928;-66
2022/04/30 00:51:40;;;;;;;;;;;11.00;85.50;;;;;;5035774;28;20418;-66
2022/04/30 00:54:07;;;;;;;;;;;11.00;84.10;;;;;;5035560;28;19933;-66
2022/04/30 00:56:38;;;;;;;;;;;11.10;85.00;;;;;;5032572;28;19936;-66
2022/04/30 00:59:06;;;;;;;;;;;11.00;83.90;;;;;;5033750;28;19932;-66
2022/04/30 01:01:34;;;;;;;;;;;11.00;83.40;;;;;;5030769;28;19933;-66
2022/04/30 01:04:21;;;;;;;;;;;11.00;83.40;;;;;;5032045;28;20489;-66
2022/04/30 01:06:51;;;;;;;;;;;11.00;82.60;;;;;;5030925;28;19929;-66
2022/04/30 01:09:23;;;;;;;;;;;11.00;83.80;;;;;;5038108;28;19929;-66
2022/04/30 01:11:55;;;;;;;;;;;11.10;83.10;;;;;;5030920;28;19933;-66
2022/04/30 01:14:26;;;;;;;;;;;11.00;83.10;;;;;;5036609;28;19933;-66
2022/04/30 01:16:56;;;;;;;;;;;11.00;82.40;;;;;;5029507;28;19932;-66
2022/04/30 01:19:23;;;;;;;;;;;11.00;82.60;;;;;;5033737;28;19929;-65
2022/04/30 01:21:50;;;;;;;;;;;11.00;81.80;;;;;;5036056;28;19936;-66
2022/04/30 01:24:20;;;;;;;;;;;11.00;82.60;;;;;;5029327;28;19986;-66
2022/04/30 01:26:48;;;;;;;;;;;11.00;81.70;;;;;;5034445;28;19925;-66
2022/04/30 01:29:17;;;;;;;;;;;11.00;82.30;;;;;;5029936;28;19933;-66
2022/04/30 01:37:28;;;;;;;;;;;10.90;81.50;;;;;;5029478;28;19929;-66
2022/04/30 01:40:04;;;;;;;;;;;10.80;81.50;;;;;;5044754;28;19932;-66
2022/04/30 01:42:35;;;;;;;;;;;10.80;81.50;;;;;;5029641;28;19929;-66
2022/04/30 01:45:04;;;;;;;;;;;10.80;82.70;;;;;;5031812;28;19936;-66
2022/04/30 01:47:50;;;;;;;;;;;10.80;82.50;;;;;;5019712;28;19961;-66
2022/04/30 01:50:17;;;;;;;;;;;10.80;82.60;;;;;;5037049;28;19932;-66
2022/04/30 01:52:44;;;;;;;;;;;10.70;82.60;;;;;;5032797;28;19935;-65
2022/04/30 01:55:11;;;;;;;;;;;10.70;82.70;;;;;;5029032;28;20284;-66
2022/04/30 01:57:38;;;;;;;;;;;10.70;84.00;;;;;;5033716;28;19928;-66
2022/04/30 02:00:06;;;;;;;;;;;10.70;83.10;;;;;;5030231;28;20335;-66
2022/04/30 02:02:40;;;;;;;;;;;10.60;84.70;;;;;;5030567;28;19936;-66
2022/04/30 02:05:08;;;;;;;;;;;10.60;83.80;;;;;;5032866;28;19929;-65
2022/04/30 02:07:39;;;;;;;;;;;10.60;83.40;;;;;;5034266;28;19925;-65
2022/04/30 02:10:08;;;;;;;;;;;10.60;84.20;;;;;;5027961;28;19935;-66
2022/04/30 02:12:35;;;;;;;;;;;10.50;84.40;;;;;;5034312;28;19939;-65
2022/04/30 02:15:02;;;;;;;;;;;10.50;84.20;;;;;;5035659;28;19929;-66
2022/04/30 02:17:29;;;;;;;;;;;10.50;84.90;;;;;;5045399;28;19932;-66
2022/04/30 02:22:45;;;;;;;;;;;10.40;86.00;;;;;;5030151;28;19933;-65
2022/04/30 02:25:13;;;;;;;;;;;10.40;86.20;;;;;;5030451;28;19940;-65
2022/04/30 02:27:41;;;;;;;;;;;10.40;86.50;;;;;;5033029;28;19936;-65
2022/04/30 02:30:09;;;;;;;;;;;10.30;89.70;;;;;;5033283;28;19940;-66
2022/04/30 02:32:40;;;;;;;;;;;10.30;89.80;;;;;;5038604;28;20480;-65
2022/04/30 02:35:08;;;;;;;;;;;10.20;91.10;;;;;;5031868;28;20060;-65
2022/04/30 02:37:36;;;;;;;;;;;10.20;90.80;;;;;;5036258;28;19929;-65
2022/04/30 02:40:03;;;;;;;;;;;10.20;91.40;;;;;;5037825;28;19929;-65
2022/04/30 02:42:30;;;;;;;;;;;10.10;91.70;;;;;;5040690;28;19948;-65
2022/04/30 02:44:57;;;;;;;;;;;10.10;90.90;;;;;;5033634;28;20032;-65
2022/04/30 02:47:24;;;;;;;;;;;10.00;90.80;;;;;;5030518;28;19952;-65
2022/04/30 02:49:51;;;;;;;;;;;10.00;90.90;;;;;;5024379;28;19941;-65
2022/04/30 02:52:19;;;;;;;;;;;10.00;91.10;;;;;;5034372;28;20308;-65
2022/04/30 02:54:46;;;;;;;;;;;10.00;91.30;;;;;;5033584;28;19928;-65
2022/04/30 02:57:13;;;;;;;;;;;9.90;91.30;;;;;;5036066;28;19932;-65
2022/04/30 02:59:58;;;;;;;;;;;9.90;91.80;;;;;;5048180;28;19933;-65
2022/04/30 03:02:48;;;;;;;;;;;9.90;92.40;;;;;;5034854;28;19929;-65
2022/04/30 03:05:15;;;;;;;;;;;9.80;93.10;;;;;;5039601;28;19936;-65
2022/04/30 03:07:45;;;;;;;;;;;9.80;93.10;;;;;;5034916;28;20027;-65
2022/04/30 03:10:12;;;;;;;;;;;9.70;93.90;;;;;;5038144;28;20356;-65
2022/04/30 03:12:39;;;;;;;;;;;9.70;93.70;;;;;;5037771;28;19929;-65
2022/04/30 03:15:07;;;;;;;;;;;9.60;93.70;;;;;;5036452;28;20038;-65
2022/04/30 03:23:06;;;;;;;;;;;9.60;95.10;;;;;;5049465;28;19935;-65
2022/04/30 03:25:33;;;;;;;;;;;9.60;94.80;;;;;;5051944;28;19944;-65
2022/04/30 03:28:00;;;;;;;;;;;9.50;95.40;;;;;;5034271;28;19935;-65
2022/04/30 03:30:27;;;;;;;;;;;9.50;95.40;;;;;;5036969;28;19940;-65
2022/04/30 03:32:55;;;;;;;;;;;9.40;95.10;;;;;;5033407;28;19933;-66
2022/04/30 03:35:22;;;;;;;;;;;9.50;95.60;;;;;;5020201;28;19940;-65
2022/04/30 03:37:49;;;;;;;;;;;9.40;95.60;;;;;;5035942;28;19948;-65
2022/04/30 03:40:15;;;;;;;;;;;9.40;97.00;;;;;;5034840;28;20019;-65
2022/04/30 03:42:43;;;;;;;;;;;9.40;96.10;;;;;;5034605;28;19929;-65
2022/04/30 03:45:10;;;;;;;;;;;9.40;96.30;;;;;;5030823;28;20288;-65
2022/04/30 03:47:37;;;;;;;;;;;9.40;96.40;;;;;;5033981;28;19932;-65
2022/04/30 03:50:05;;;;;;;;;;;9.40;96.10;;;;;;5034946;28;19964;-65
2022/04/30 03:52:32;;;;;;;;;;;9.40;96.20;;;;;;5038185;28;21292;-65
2022/04/30 03:54:59;;;;;;;;;;;9.30;96.10;;;;;;5031542;28;20296;-65
2022/04/30 03:57:28;;;;;;;;;;;9.30;96.30;;;;;;5034665;28;20040;-65
2022/04/30 03:59:55;;;;;;;;;;;9.30;96.10;;;;;;5038266;28;19929;-65
2022/04/30 04:02:23;;;;;;;;;;;9.30;96.40;;;;;;5032985;28;20029;-65
2022/04/30 04:04:52;;;;;;;;;;;9.30;96.10;;;;;;5033316;28;19978;-65
2022/04/30 04:07:19;;;;;;;;;;;9.30;95.90;;;;;;5031679;28;19929;-65
2022/04/30 04:09:46;;;;;;;;;;;9.30;95.80;;;;;;5034015;28;19936;-65
2022/04/30 04:12:13;;;;;;;;;;;9.40;95.60;;;;;;5035330;28;19940;-65
2022/04/30 04:17:38;;;;;;;;;;;9.40;95.90;;;;;;5029949;28;19928;-65
2022/04/30 04:20:09;;;;;;;;;;;9.50;96.30;;;;;;5031168;28;19929;-65
2022/04/30 04:22:36;;;;;;;;;;;9.50;95.60;;;;;;5034386;28;20015;-65
2022/04/30 04:27:55;;;;;;;;;;;9.60;96.30;;;;;;5034252;28;20399;-65
2022/04/30 04:30:22;;;;;;;;;;;9.60;96.10;;;;;;5037820;28;20466;-65
2022/04/30 04:32:49;;;;;;;;;;;9.70;95.70;;;;;;5036228;28;19936;-65
2022/04/30 04:35:16;;;;;;;;;;;9.70;95.20;;;;;;5034400;28;19934;-65
2022/04/30 04:37:43;;;;;;;;;;;9.70;95.10;;;;;;5033933;28;19999;-65
2022/04/30 04:40:11;;;;;;;;;;;9.80;96.00;;;;;;5033788;28;20344;-66
2022/04/30 04:42:39;;;;;;;;;;;9.90;96.00;;;;;;5035295;28;19935;-65
2022/04/30 04:45:07;;;;;;;;;;;9.90;95.30;;;;;;5032747;28;19933;-65
2022/04/30 04:47:41;;;;;;;;;;;9.90;95.00;;;;;;5033037;28;19957;-66
2022/04/30 04:50:09;;;;;;;;;;;9.90;95.00;;;;;;5035852;28;19925;-65
2022/04/30 04:52:36;;;;;;;;;;;9.90;94.70;;;;;;5033822;28;19933;-65
2022/04/30 04:55:03;;;;;;;;;;;9.90;94.70;;;;;;5034041;28;19984;-65
2022/04/30 04:57:30;;;;;;;;;;;10.00;94.90;;;;;;5037025;28;20295;-65
2022/04/30 04:59:57;;;;;;;;;;;10.10;94.60;;;;;;5031003;28;20707;-65
2022/04/30 05:02:25;;;;;;;;;;;10.20;94.40;;;;;;4993667;28;22214;-66
2022/04/30 05:04:52;;;;;;;;;;;10.30;94.30;;;;;;4989208;28;19966;-66
2022/04/30 05:07:19;;;;;;;;;;;10.30;94.20;;;;;;4988695;28;19933;-65
2022/04/30 05:09:45;;;;;;;;;;;10.40;93.80;;;;;;4985676;28;20434;-66
2022/04/30 05:12:13;;;;;;;;;;;10.50;93.70;;;;;;4963514;28;19972;-68
2022/04/30 05:14:40;;;;;;;;;;;10.60;93.40;;;;;;5005830;28;19939;-65
2022/04/30 05:17:08;;;;;;;;;;;10.70;93.00;;;;;;5003255;28;19933;-65
2022/04/30 05:19:35;;;;;;;;;;;10.80;92.40;;;;;;4979542;28;19978;-65
2022/04/30 05:22:02;;;;;;;;;;;10.90;92.00;;;;;;5004312;28;19933;-65
2022/04/30 05:24:30;;;;;;;;;;;11.00;91.90;;;;;;4989444;28;19933;-65
2022/04/30 05:26:57;;;;;;;;;;;11.10;90.80;;;;;;4989569;28;19933;-66
2022/04/30 05:29:24;;;;;;;;;;;11.20;90.40;;;;;;4995818;28;19933;-65
2022/04/30 05:31:51;;;;;;;;;;;11.30;90.10;;;;;;4988438;28;19933;-65
2022/04/30 05:34:18;;;;;;;;;;;11.50;88.90;;;;;;4987925;28;22004;-66
2022/04/30 05:36:44;;;;;;;;;;;11.60;88.20;;;;;;5004485;28;19933;-65
2022/04/30 05:39:11;;;;;;;;;;;11.80;86.10;;;;;;4987509;28;20005;-65
2022/04/30 05:41:38;;;;;;;;;;;11.90;84.80;;;;;;4996393;28;22387;-66
2022/04/30 05:44:05;;;;;;;;;;;12.10;84.40;;;;;;4988662;28;19933;-66
2022/04/30 05:46:32;;;;;;;;;;;12.20;83.50;;;;;;4988774;28;19933;-66
2022/04/30 05:48:59;;;;;;;;;;;12.30;84.30;;;;;;4986207;28;19933;-66
2022/04/30 05:51:26;;;;;;;;;;;12.50;83.80;;;;;;4986790;28;19939;-66
2022/04/30 05:53:53;;;;;;;;;;;12.60;84.50;;;;;;4987250;28;19933;-66
2022/04/30 05:56:20;;;;;;;;;;;12.80;83.40;;;;;;4988902;28;19932;-65
2022/04/30 05:58:47;;;;;;;;;;;12.90;82.80;;;;;;4989251;28;19959;-66
2022/04/30 06:01:14;;;;;;;;;;;13.10;82.60;;;;;;4986030;28;19940;-66
2022/04/30 06:03:41;;;;;;;;;;;13.30;81.30;;;;;;4984890;28;19941;-66
2022/04/30 06:06:08;;;;;;;;;;;13.50;79.90;;;;;;4995461;28;19933;-66
2022/04/30 06:08:35;;;;;;;;;;;13.70;79.00;;;;;;4988812;28;19933;-67
2022/04/30 06:11:03;;;;;;;;;;;13.80;77.00;;;;;;4986477;28;19933;-67
2022/04/30 06:13:30;;;;;;;;;;;14.00;77.40;;;;;;4988800;28;22323;-67
2022/04/30 06:15:57;;;;;;;;;;;14.10;76.60;;;;;;4988352;28;21329;-67
2022/04/30 06:18:25;;;;;;;;;;;14.30;75.60;;;;;;4989192;28;19933;-67
2022/04/30 06:20:52;;;;;;;;;;;14.30;77.70;;;;;;5001985;28;20751;-67
2022/04/30 06:23:19;;;;;;;;;;;14.40;75.90;;;;;;4988342;28;20493;-67
2022/04/30 06:25:46;;;;;;;;;;;14.50;72.80;;;;;;4987581;28;19941;-66
2022/04/30 06:28:14;;;;;;;;;;;14.60;72.90;;;;;;4987297;28;19940;-67
2022/04/30 06:30:41;;;;;;;;;;;14.60;73.10;;;;;;4987358;28;19987;-67
2022/04/30 06:33:08;;;;;;;;;;;14.50;72.70;;;;;;4989406;28;22474;-66
2022/04/30 06:35:37;;;;;;;;;;;14.50;72.70;;;;;;4987542;28;19940;-66
2022/04/30 06:38:04;;;;;;;;;;;14.30;70.80;;;;;;4986384;28;19933;-66
2022/04/30 06:40:31;;;;;;;;;;;14.40;72.20;;;;;;4989538;28;22164;-66
2022/04/30 06:42:59;;;;;;;;;;;14.50;72.40;;;;;;4984936;28;20035;-66
2022/04/30 06:45:26;;;;;;;;;;;14.60;70.00;;;;;;4988565;28;19940;-67
2022/04/30 06:47:53;;;;;;;;;;;14.70;70.60;;;;;;4987318;28;19933;-67
2022/04/30 06:50:20;;;;;;;;;;;14.80;70.30;;;;;;4988282;28;20279;-67
2022/04/30 06:58:19;;;;;;;;;;;15.20;67.30;;;;;;5003319;28;19940;-66
2022/04/30 07:03:27;;;;;;;;;;;15.50;69.30;;;;;;4988464;28;20067;-66
2022/04/30 07:06:02;;;;;;;;;;;15.60;68.70;;;;;;4988267;28;19940;-65
2022/04/30 07:08:33;;;;;;;;;;;15.70;66.50;;;;;;4985783;28;19933;-66
2022/04/30 07:11:01;;;;;;;;;;;15.80;66.10;;;;;;4989574;28;19933;-67
2022/04/30 07:13:30;;;;;;;;;;;16.00;67.90;;;;;;4994557;28;19932;-67
2022/04/30 07:15:58;;;;;;;;;;;16.10;65.70;;;;;;4988770;28;19940;-67
2022/04/30 07:18:25;;;;;;;;;;;16.10;65.80;;;;;;4991462;28;20273;-67
2022/04/30 07:20:55;;;;;;;;;;;16.20;67.80;;;;;;4990231;28;19932;-66
2022/04/30 07:23:22;;;;;;;;;;;16.30;65.10;;;;;;4990489;28;20336;-66
2022/04/30 07:25:48;;;;;;;;;;;16.30;65.00;;;;;;4990566;28;20706;-67
2022/04/30 07:28:15;;;;;;;;;;;16.50;65.70;;;;;;4989841;28;20042;-67
2022/04/30 07:30:42;;;;;;;;;;;16.50;63.90;;;;;;4990846;28;19933;-67
2022/04/30 07:33:09;;;;;;;;;;;16.60;65.70;;;;;;5001903;28;19933;-67
2022/04/30 07:35:36;;;;;;;;;;;16.80;65.20;;;;;;4969940;28;19955;-67
2022/04/30 07:38:03;;;;;;;;;;;16.80;65.00;;;;;;4990349;28;19940;-65
2022/04/30 07:40:31;;;;;;;;;;;17.00;65.20;;;;;;4992055;28;19933;-67
2022/04/30 07:42:58;;;;;;;;;;;17.00;65.90;;;;;;4991626;28;22287;-66
2022/04/30 07:45:25;;;;;;;;;;;17.10;66.00;;;;;;4975278;28;22642;-66
2022/04/30 07:47:54;;;;;;;;;;;17.10;65.20;;;;;;4999818;28;20311;-68
2022/04/30 07:50:23;;;;;;;;;;;17.20;67.80;;;;;;4990159;28;19933;-65
2022/04/30 07:52:50;;;;;;;;;;;17.30;65.20;;;;;;4989569;28;19933;-66
2022/04/30 07:55:17;;;;;;;;;;;17.30;66.10;;;;;;4989873;28;20930;-65
2022/04/30 07:57:44;;;;;;;;;;;17.50;63.10;;;;;;5006456;28;19994;-67
2022/04/30 08:00:12;;;;;;;;;;;17.50;64.20;;;;;;4991085;28;19940;-67
2022/04/30 08:02:39;;;;;;;;;;;17.50;65.00;;;;;;4985321;28;19933;-67
2022/04/30 08:05:06;;;;;;;;;;;17.50;65.30;;;;;;4982137;28;22606;-67
2022/04/30 08:07:33;;;;;;;;;;;17.60;66.30;;;;;;4985234;28;19940;-67
2022/04/30 08:10:01;;;;;;;;;;;17.60;66.00;;;;;;4987930;28;19933;-66
2022/04/30 08:12:28;;;;;;;;;;;17.60;64.90;;;;;;4983134;28;19933;-67
2022/04/30 08:14:55;;;;;;;;;;;17.60;63.60;;;;;;4997316;28;19933;-66
2022/04/30 08:17:21;;;;;;;;;;;17.70;65.50;;;;;;4984806;28;19936;-67
2022/04/30 08:19:49;;;;;;;;;;;17.70;66.10;;;;;;4992892;28;19940;-67
2022/04/30 08:22:16;;;;;;;;;;;17.80;65.10;;;;;;4987025;28;20688;-67
2022/04/30 08:24:43;;;;;;;;;;;17.90;63.90;;;;;;4990886;28;19994;-67
2022/04/30 08:27:11;;;;;;;;;;;18.10;64.50;;;;;;4999146;28;20640;-67
2022/04/30 08:29:38;;;;;;;;;;;18.10;65.80;;;;;;4989566;28;19933;-68
2022/04/30 08:32:06;;;;;;;;;;;18.20;64.30;;;;;;4988347;28;20818;-66
2022/04/30 08:34:33;;;;;;;;;;;18.20;62.70;;;;;;4989397;28;20026;-67
2022/04/30 08:37:00;;;;;;;;;;;18.30;62.90;;;;;;4997622;28;19933;-68
2022/04/30 08:39:27;;;;;;;;;;;18.40;65.10;;;;;;4992125;28;19933;-68
2022/04/30 08:41:55;;;;;;;;;;;18.30;63.50;;;;;;4995168;28;19978;-67
2022/04/30 08:44:22;;;;;;;;;;;18.40;63.30;;;;;;4988048;28;19941;-68
2022/04/30 08:46:49;;;;;;;;;;;18.40;65.80;;;;;;4986475;28;20714;-68
2022/04/30 08:49:16;;;;;;;;;;;18.40;65.40;;;;;;4998886;28;19932;-68
2022/04/30 08:51:43;;;;;;;;;;;18.40;62.60;;;;;;4987641;28;19932;-66
2022/04/30 08:54:10;;;;;;;;;;;18.50;61.90;;;;;;5003484;28;19933;-66
2022/04/30 08:56:38;;;;;;;;;;;18.50;59.70;;;;;;4987882;28;19976;-68
2022/04/30 08:59:05;;;;;;;;;;;18.60;61.20;;;;;;4988681;28;20031;-68
2022/04/30 09:01:57;;;;;;;;;;;18.50;61.50;;;;;;4976517;28;20948;-67
2022/04/30 09:04:26;;;;;;;;;;;18.70;60.70;;;;;;4981346;28;20399;-68
2022/04/30 09:06:55;;;;;;;;;;;18.80;60.50;;;;;;4986292;28;19976;-67
2022/04/30 09:09:23;;;;;;;;;;;18.80;60.30;;;;;;4987440;28;19940;-67
2022/04/30 09:11:53;;;;;;;;;;;19.00;62.00;;;;;;4988359;28;19933;-68
2022/04/30 09:14:24;;;;;;;;;;;19.10;60.20;;;;;;4981109;28;19962;-69
2022/04/30 09:17:05;;;;;;;;;;;19.00;59.40;;;;;;4980188;28;19933;-67
2022/04/30 09:19:45;;;;;;;;;;;18.90;59.90;;;;;;4985706;28;19940;-67
2022/04/30 09:22:15;;;;;;;;;;;18.80;58.40;;;;;;4987229;28;20165;-69
2022/04/30 09:24:45;;;;;;;;;;;18.90;60.90;;;;;;4993937;28;20715;-68
2022/04/30 09:27:32;;;;;;;;;;;19.00;59.70;;;;;;5002097;28;20157;-68
2022/04/30 09:29:59;;;;;;;;;;;19.10;59.20;;;;;;4986496;28;19933;-67
2022/04/30 09:32:28;;;;;;;;;;;19.00;55.00;;;;;;4985612;28;20825;-68
2022/04/30 09:37:45;;;;;;;;;;;19.40;57.00;;;;;;4987244;28;19967;-67
2022/04/30 09:40:15;;;;;;;;;;;19.60;56.00;;;;;;4987077;28;23833;-68
2022/04/30 09:42:43;;;;;;;;;;;19.80;55.60;;;;;;4986259;28;19940;-68
2022/04/30 09:45:21;;;;;;;;;;;19.90;55.30;;;;;;4989403;28;19995;-69
2022/04/30 09:47:50;;;;;;;;;;;20.10;57.60;;;;;;4990392;28;20067;-68
2022/04/30 09:55:54;;;;;;;;;;;20.20;54.00;;;;;;4988801;28;19939;-68
2022/04/30 09:58:26;;;;;;;;;;;20.20;53.50;;;;;;4988874;28;19982;-70
2022/04/30 10:00:55;;;;;;;;;;;20.10;54.40;;;;;;4986929;28;20067;-68
2022/04/30 10:03:29;;;;;;;;;;;20.00;54.50;;;;;;4986291;28;23198;-67
2022/04/30 10:05:58;;;;;;;;;;;19.90;53.30;;;;;;4981527;28;19940;-68
2022/04/30 10:08:26;;;;;;;;;;;19.90;56.90;;;;;;4987202;28;19933;-68
2022/04/30 10:10:58;;;;;;;;;;;20.00;53.50;;;;;;4969834;28;19933;-67
2022/04/30 10:13:44;;;;;;;;;;;20.10;52.90;;;;;;4990176;28;19995;-66
2022/04/30 10:16:12;;;;;;;;;;;20.20;52.40;;;;;;4985047;28;20735;-68
2022/04/30 10:18:42;;;;;;;;;;;20.30;55.10;;;;;;4986287;28;20035;-67
2022/04/30 10:21:19;;;;;;;;;;;20.20;51.50;;;;;;4971024;28;20818;-67
2022/04/30 10:23:46;;;;;;;;;;;20.10;51.50;;;;;;4982540;28;19933;-67
2022/04/30 10:26:14;;;;;;;;;;;20.00;50.90;;;;;;4983073;28;20514;-67
2022/04/30 10:28:41;;;;;;;;;;;20.00;53.10;;;;;;4999020;28;19932;-67
2022/04/30 10:31:11;;;;;;;;;;;20.10;54.60;;;;;;4983573;28;19933;-67
2022/04/30 10:33:49;;;;;;;;;;;20.30;53.40;;;;;;4985540;28;22216;-67
2022/04/30 10:36:18;;;;;;;;;;;20.30;49.50;;;;;;4992391;28;19940;-69
2022/04/30 10:38:55;;;;;;;;;;;20.40;49.20;;;;;;4983419;28;19933;-68
2022/04/30 10:41:22;;;;;;;;;;;20.40;48.10;;;;;;4986687;28;19969;-67
2022/04/30 10:43:58;;;;;;;;;;;20.30;47.30;;;;;;4987142;28;19933;-67
2022/04/30 10:46:26;;;;;;;;;;;20.40;47.00;;;;;;4987208;28;19939;-68
2022/04/30 10:48:53;;;;;;;;;;;20.40;47.60;;;;;;4986953;28;20021;-67
2022/04/30 10:51:40;;;;;;;;;;;20.40;47.80;;;;;;4988214;28;19995;-68
2022/04/30 10:54:09;;;;;;;;;;;20.30;49.10;;;;;;4986973;28;19986;-67
2022/04/30 10:56:37;;;;;;;;;;;20.60;47.50;;;;;;4991370;28;19933;-67
2022/04/30 10:59:04;;;;;;;;;;;20.60;47.50;;;;;;4986616;28;20403;-68
2022/04/30 11:01:31;;;;;;;;;;;20.40;46.40;;;;;;4996174;28;20315;-67
2022/04/30 11:04:01;;;;;;;;;;;20.30;47.50;;;;;;4984528;28;19955;-68
2022/04/30 11:06:29;;;;;;;;;;;20.30;47.20;;;;;;4983610;28;20022;-68
2022/04/30 11:09:04;;;;;;;;;;;20.20;48.40;;;;;;5005814;28;20783;-69
2022/04/30 11:11:33;;;;;;;;;;;20.30;50.00;;;;;;5000219;28;19933;-69
2022/04/30 11:14:04;;;;;;;;;;;20.30;47.80;;;;;;4989034;28;22402;-68
2022/04/30 11:16:32;;;;;;;;;;;20.30;49.70;;;;;;4990063;28;19933;-68
2022/04/30 11:19:08;;;;;;;;;;;20.40;49.00;;;;;;4974089;28;22206;-66
2022/04/30 11:21:37;;;;;;;;;;;20.50;47.40;;;;;;4990053;28;19933;-67
2022/04/30 11:24:05;;;;;;;;;;;20.50;45.20;;;;;;4990787;28;19944;-68
2022/04/30 11:26:53;;;;;;;;;;;20.60;45.50;;;;;;4990044;28;19933;-68
2022/04/30 11:29:21;;;;;;;;;;;20.60;47.20;;;;;;4987298;28;20323;-67
2022/04/30 11:31:50;;;;;;;;;;;20.60;46.30;;;;;;4990573;28;19940;-68
2022/04/30 11:34:18;;;;;;;;;;;20.80;47.10;;;;;;4988720;28;19933;-68
2022/04/30 11:36:52;;;;;;;;;;;20.60;46.90;;;;;;4989734;28;19933;-68
2022/04/30 11:39:20;;;;;;;;;;;20.80;46.20;;;;;;5005968;28;19933;-67
2022/04/30 11:41:51;;;;;;;;;;;20.90;47.70;;;;;;4991751;28;19932;-69
2022/04/30 11:44:19;;;;;;;;;;;21.00;46.40;;;;;;5005878;28;22255;-69
2022/04/30 11:46:47;;;;;;;;;;;21.00;47.80;;;;;;4990656;28;19933;-72
2022/04/30 11:49:19;;;;;;;;;;;21.10;46.70;;;;;;5005953;28;20045;-70
2022/04/30 11:52:06;;;;;;;;;;;21.10;47.10;;;;;;4992312;28;19945;-70
2022/04/30 11:54:36;;;;;;;;;;;21.30;46.20;;;;;;4988448;28;19962;-69
2022/04/30 11:57:03;;;;;;;;;;;21.50;47.60;;;;;;4998283;28;19998;-70
2022/04/30 11:59:32;;;;;;;;;;;21.40;45.20;;;;;;4991930;28;19936;-69
2022/04/30 12:02:00;;;;;;;;;;;21.70;43.30;;;;;;4990084;28;20709;-70
2022/04/30 12:04:46;;;;;;;;;;;21.80;46.10;;;;;;4990610;28;20027;-70
2022/04/30 12:07:14;;;;;;;;;;;21.80;46.10;;;;;;4994632;28;19934;-94
2022/04/30 12:09:55;;;;;;;;;;;21.90;42.80;;;;;;5005983;28;19953;-96
2022/04/30 12:12:23;;;;;;;;;;;22.10;46.40;;;;;;4997596;28;19933;-94
2022/04/30 12:14:51;;;;;;;;;;;22.00;44.40;;;;;;5013088;28;19926;-95
2022/04/30 12:17:27;;;;;;;;;;;21.30;44.40;;;;;;4993904;28;19933;-94
2022/04/30 12:25:49;;;;;;;;;;;20.50;42.60;;;;;;4875600;29;20305;-64
2022/04/30 12:28:16;;;;;;;;;;;20.80;44.50;;;;;;4887023;28;19934;-65
2022/04/30 12:30:50;;;;;;;;;;;20.80;47.70;;;;;;4880894;28;19942;-66
2022/04/30 12:33:17;;;;;;;;;;;21.10;47.20;;;;;;4891490;28;20266;-65
2022/04/30 12:35:52;;;;;;;;;;;21.40;45.70;;;;;;4888488;28;19989;-65
2022/04/30 12:38:19;;;;;;;;;;;21.60;44.50;;;;;;4924174;23;19938;-89
2022/04/30 12:40:47;;;;;;;;;;;21.60;45.10;;;;;;4904702;29;19937;-93
2022/04/30 12:43:19;;;;;;;;;;;21.20;46.50;;;;;;4909902;29;20013;-94
2022/04/30 12:45:48;;;;;;;;;;;21.40;46.60;;;;;;4931469;28;19933;-90
2022/04/30 12:48:15;;;;;;;;;;;21.20;46.00;;;;;;4925248;29;19927;-95
2022/04/30 12:50:47;;;;;;;;;;;20.80;46.50;;;;;;4937130;28;19927;-96
2022/04/30 12:53:15;;;;;;;;;;;20.60;49.60;;;;;;4907169;29;19941;-96
2022/04/30 12:55:45;;;;;;;;;;;20.50;47.70;;;;;;4952955;28;19993;-93
2022/04/30 12:58:12;;;;;;;;;;;20.50;48.00;;;;;;4942399;28;19930;-95
2022/04/30 13:00:40;;;;;;;;;;;20.90;49.50;;;;;;4925837;28;19930;-93
2022/04/30 13:03:08;;;;;;;;;;;20.80;46.60;;;;;;4926746;28;20249;-94
2022/04/30 13:05:36;;;;;;;;;;;20.60;46.70;;;;;;4942181;28;19926;-95
2022/04/30 13:08:03;;;;;;;;;;;20.90;47.70;;;;;;4930197;29;19926;-94
2022/04/30 13:13:39;;;;;;;;;;;22.20;48.40;;;;;;4949595;28;19926;-95
2022/04/30 13:18:23;;;;;;;5.30;1.42;;;21.90;42.90;;;;;;5106235;27;20411;-96
2022/04/30 13:20:50;;;;;;;3.70;1.70;;;22.00;43.60;;;;;;5061893;28;20044;-96
2022/04/30 13:23:20;;;;;;;3.08;1.35;;;22.00;42.80;;;;;;5242130;22;20120;-96
2022/04/30 13:25:49;;;;;;;1.80;1.48;;;21.80;41.80;;;;;;5026182;28;20052;-94
2022/04/30 13:28:17;;;;;;;3.45;1.40;;;21.80;44.80;;;;;;5018783;28;20467;-96
2022/04/30 13:30:44;;;;;;;4.57;1.50;;;22.00;45.40;;;;;;5030545;28;20053;-93
2022/04/30 13:33:12;;;;;;;2.50;1.35;;;22.10;43.80;;;;;;5020158;28;20057;-94
2022/04/30 13:35:39;;;;;;;4.18;1.48;;;21.90;43.20;;;;;;5008379;28;20053;-96
2022/04/30 13:38:07;;;;;;;3.00;1.30;;;21.80;42.30;;;;;;5032518;28;20054;-93
2022/04/30 13:40:35;;;;;;;3.10;1.65;;;21.60;45.30;;;;;;5007334;28;20102;-92
2022/04/30 13:43:02;;;;;;;2.00;1.30;;;21.50;41.60;;;;;;5028523;28;20065;-89
2022/04/30 13:45:30;;;;;;;4.88;1.17;;;21.50;42.10;;;;;;5034413;28;20042;-91
2022/04/30 13:47:57;;;;;;;3.90;1.02;;;21.50;43.50;;;;;;5036401;28;20104;-96
2022/04/30 13:50:25;;;;;;;2.38;1.60;;;21.50;42.30;;;;;;5016133;28;20049;-95
2022/04/30 13:52:52;;;;;;;2.10;1.02;;;21.50;45.30;;;;;;5009409;28;20054;-96
2022/04/30 13:55:19;;;;;;;1.98;1.30;;;21.50;43.10;;;;;;5015379;28;20038;-92
2022/04/30 13:57:48;;;;;;;2.15;1.30;;;21.50;44.30;;;;;;5015572;28;20538;-93
2022/04/30 14:06:21;;;;;;;2.13;1.42;;;21.10;42.60;;;;;;5328403;24;19937;-92
2022/04/30 14:08:48;;;;;;;3.80;1.75;;;21.00;47.10;;;;;;4757504;29;20055;-95
2022/04/30 14:11:16;;;;;;;2.13;1.13;;;21.00;44.50;;;;;;4767531;29;20047;-93
2022/04/30 14:16:29;;;;;;;2.92;1.50;;;21.10;45.40;;;;;;4773920;29;20055;-96
2022/04/30 14:18:57;;;;;;;4.07;1.98;;;21.20;46.20;;;;;;4755883;29;20424;-95
2022/04/30 14:21:24;;;;;;;2.58;1.30;;;21.20;45.90;;;;;;4756013;29;20050;-93
2022/04/30 14:23:51;;;;;;;3.72;1.30;;;21.10;45.60;;;;;;4760408;29;20083;-94
2022/04/30 14:26:21;;;;;;;3.70;1.23;;;21.20;45.60;;;;;;4773959;29;20104;-93
2022/04/30 14:28:50;;;;;;;3.05;1.90;;;21.30;45.40;;;;;;4741124;30;20312;-93
2022/04/30 14:31:18;;;;;;;2.78;1.30;;;21.10;44.60;;;;;;4748196;30;20070;-93
2022/04/30 14:33:45;;;;;;;2.38;1.25;;;20.90;44.50;;;;;;4752675;30;20055;-94
2022/04/30 14:36:19;;;;;;;1.85;1.20;;;20.90;44.00;;;;;;4747465;30;20063;-95
2022/04/30 14:38:46;;;;;;;2.53;1.35;;;21.00;43.50;;;;;;4751342;30;20142;-94
2022/04/30 14:41:15;;;;;;;1.70;1.00;;;20.80;44.00;;;;;;4762222;30;20043;-93
2022/04/30 14:43:47;;;;;;;3.92;1.40;;;20.70;45.00;;;;;;4761534;30;20110;-92
2022/04/30 14:46:15;;;;;;;1.83;1.10;;;20.40;45.80;;;;;;4760334;30;20048;-93
2022/04/30 14:48:43;;;;;;;2.20;1.42;;;20.30;45.80;;;;;;4761509;30;20494;-91
2022/04/30 14:51:12;;;;;;;2.97;1.23;;;20.40;47.00;;;;;;4762578;30;20047;-93
2022/04/30 14:53:39;;;;;;;1.92;1.08;;;20.50;46.90;;;;;;4748743;30;22555;-94
2022/04/30 14:56:07;;;;;;;4.07;1.63;;;20.70;44.20;;;;;;4748492;30;20062;-94
2022/04/30 14:58:39;;;;;;;3.28;1.02;;;20.70;45.50;;;;;;4759046;30;20059;-92
2022/04/30 15:01:09;;;;;;;5.55;1.42;;;20.70;44.80;;;;;;4748177;30;20048;-94
2022/04/30 15:03:36;;;;;;;2.30;1.20;;;20.70;42.50;;;;;;4761101;30;20675;-93
2022/04/30 15:06:03;;;;;;;3.53;1.42;;;20.70;44.70;;;;;;4761298;30;20039;-94
2022/04/30 15:08:31;;;;;;;1.20;0.80;;;20.70;45.10;;;;;;4754869;30;20059;-90
2022/04/30 15:10:59;;;;;;;1.70;0.93;;;20.70;44.20;;;;;;4773061;29;20803;-92
2022/04/30 15:13:26;;;;;;;2.08;1.10;;;20.70;43.10;;;;;;4763590;30;20085;-94